sensor_id;sensor_type;location;lat;lon;timestamp;pressure;altitude;pressure_sealevel;temperature;humidity
66021;BME280;52789;59.980;30.346;2022-07-12T00:00:11;101074.34;;;16.61;100.00
66021;BME280;52789;59.980;30.346;2022-07-12T00:02:37;101072.69;;;16.60;100.00
66021;BME280;52789;59.980;30.346;2022-07-12T00:05:02;101078.91;;;16.60;100.00
66021;BME280;52789;59.980;30.346;2022-07-12T00:07:29;101070.00;;;16.60;100.00
66021;BME280;52789;59.980;30.346;2022-07-12T00:09:54;101069.41;;;16.64;100.00
66021;BME280;52789;59.980;30.346;2022-07-12T00:12:20;101068.56;;;16.64;100.00
66021;BME280;52789;59.980;30.346;2022-07-12T00:14:45;101071.06;;;16.65;100.00
66021;BME280;52789;59.980;30.346;2022-07-12T00:17:11;101095.28;;;16.65;100.00
66021;BME280;52789;59.980;30.346;2022-07-12T00:19:37;101128.13;;;16.61;100.00
66021;BME280;52789;59.980;30.346;2022-07-12T00:22:05;101178.19;;;16.62;100.00
66021;BME280;52789;59.980;30.346;2022-07-12T00:24:31;101152.59;;;16.66;100.00
66021;BME280;52789;59.980;30.346;2022-07-12T00:26:56;101156.56;;;16.49;100.00
66021;BME280;52789;59.980;30.346;2022-07-12T00:29:22;101139.81;;;16.68;100.00
66021;BME280;52789;59.980;30.346;2022-07-12T00:31:47;101175.00;;;16.73;100.00
66021;BME280;52789;59.980;30.346;2022-07-12T00:34:12;101140.31;;;16.78;100.00
66021;BME280;52789;59.980;30.346;2022-07-12T00:36:38;101154.81;;;16.77;100.00
66021;BME280;52789;59.980;30.346;2022-07-12T00:39:03;101150.41;;;16.76;100.00
66021;BME280;52789;59.980;30.346;2022-07-12T00:41:29;101149.78;;;16.74;100.00
66021;BME280;52789;59.980;30.346;2022-07-12T00:43:55;101135.31;;;16.75;100.00
66021;BME280;52789;59.980;30.346;2022-07-12T00:46:22;101136.13;;;16.76;100.00
66021;BME280;52789;59.980;30.346;2022-07-12T00:48:48;101136.34;;;16.74;100.00
66021;BME280;52789;59.980;30.346;2022-07-12T00:51:14;101142.00;;;16.79;100.00
66021;BME280;52789;59.980;30.346;2022-07-12T00:53:40;101137.44;;;16.80;100.00
66021;BME280;52789;59.980;30.346;2022-07-12T00:56:05;101125.91;;;16.86;100.00
66021;BME280;52789;59.980;30.346;2022-07-12T00:58:31;101123.00;;;16.87;100.00
66021;BME280;52789;59.980;30.346;2022-07-12T01:00:58;101110.59;;;16.86;100.00
66021;BME280;52789;59.980;30.346;2022-07-12T01:03:24;101096.50;;;16.84;100.00
66021;BME280;52789;59.980;30.346;2022-07-12T01:06:16;101098.16;;;16.85;100.00
66021;BME280;52789;59.980;30.346;2022-07-12T01:08:42;101109.56;;;16.87;100.00
66021;BME280;52789;59.980;30.346;2022-07-12T01:11:08;101094.06;;;16.89;100.00
66021;BME280;52789;59.980;30.346;2022-07-12T01:13:34;101090.34;;;16.90;100.00
66021;BME280;52789;59.980;30.346;2022-07-12T01:16:00;101094.69;;;16.91;100.00
66021;BME280;52789;59.980;30.346;2022-07-12T01:18:27;101092.81;;;16.92;100.00
66021;BME280;52789;59.980;30.346;2022-07-12T01:20:56;101089.31;;;16.91;100.00
66021;BME280;52789;59.980;30.346;2022-07-12T01:23:23;101086.84;;;16.96;100.00
66021;BME280;52789;59.980;30.346;2022-07-12T01:25:49;101079.81;;;16.95;100.00
66021;BME280;52789;59.980;30.346;2022-07-12T01:28:15;101092.47;;;17.01;100.00
66021;BME280;52789;59.980;30.346;2022-07-12T01:30:41;101085.63;;;16.99;100.00
66021;BME280;52789;59.980;30.346;2022-07-12T01:33:06;101087.47;;;16.98;100.00
66021;BME280;52789;59.980;30.346;2022-07-12T01:35:33;101092.88;;;16.98;100.00
66021;BME280;52789;59.980;30.346;2022-07-12T01:37:59;101097.41;;;16.98;100.00
66021;BME280;52789;59.980;30.346;2022-07-12T01:40:24;101093.91;;;16.97;100.00
66021;BME280;52789;59.980;30.346;2022-07-12T01:42:50;101102.00;;;17.04;100.00
66021;BME280;52789;59.980;30.346;2022-07-12T01:45:16;101113.88;;;17.10;100.00
66021;BME280;52789;59.980;30.346;2022-07-12T01:47:42;101119.88;;;17.12;100.00
66021;BME280;52789;59.980;30.346;2022-07-12T01:50:10;101112.88;;;17.17;100.00
66021;BME280;52789;59.980;30.346;2022-07-12T01:52:37;101106.25;;;17.20;100.00
66021;BME280;52789;59.980;30.346;2022-07-12T01:55:03;101100.47;;;17.23;100.00
66021;BME280;52789;59.980;30.346;2022-07-12T01:57:29;101094.69;;;17.26;100.00
66021;BME280;52789;59.980;30.346;2022-07-12T01:59:55;101066.06;;;17.12;100.00
66021;BME280;52789;59.980;30.346;2022-07-12T02:02:21;101085.19;;;17.30;100.00
66021;BME280;52789;59.980;30.346;2022-07-12T02:04:48;101084.78;;;17.33;100.00
66021;BME280;52789;59.980;30.346;2022-07-12T02:07:13;101095.81;;;17.38;100.00
66021;BME280;52789;59.980;30.346;2022-07-12T02:09:39;101089.84;;;17.43;100.00
66021;BME280;52789;59.980;30.346;2022-07-12T02:12:04;101094.00;;;17.45;100.00
66021;BME280;52789;59.980;30.346;2022-07-12T02:14:30;101089.84;;;17.49;100.00
66021;BME280;52789;59.980;30.346;2022-07-12T02:16:56;101091.75;;;17.55;100.00
66021;BME280;52789;59.980;30.346;2022-07-12T02:19:21;101088.25;;;17.61;100.00
66021;BME280;52789;59.980;30.346;2022-07-12T02:21:49;101079.13;;;17.62;100.00
66021;BME280;52789;59.980;30.346;2022-07-12T02:24:15;101078.75;;;17.65;100.00
66021;BME280;52789;59.980;30.346;2022-07-12T02:26:40;101082.53;;;17.71;100.00
66021;BME280;52789;59.980;30.346;2022-07-12T02:29:06;101081.31;;;17.74;100.00
66021;BME280;52789;59.980;30.346;2022-07-12T02:31:32;101077.59;;;17.81;100.00
66021;BME280;52789;59.980;30.346;2022-07-12T02:33:57;101057.91;;;17.81;100.00
66021;BME280;52789;59.980;30.346;2022-07-12T02:36:23;101062.47;;;17.80;100.00
66021;BME280;52789;59.980;30.346;2022-07-12T02:38:49;101066.81;;;17.88;100.00
66021;BME280;52789;59.980;30.346;2022-07-12T02:41:14;101072.63;;;17.91;100.00
66021;BME280;52789;59.980;30.346;2022-07-12T02:43:40;101074.91;;;17.88;100.00
66021;BME280;52789;59.980;30.346;2022-07-12T02:46:07;101077.66;;;17.94;100.00
66021;BME280;52789;59.980;30.346;2022-07-12T02:48:33;101067.28;;;17.98;100.00
66021;BME280;52789;59.980;30.346;2022-07-12T02:51:00;101066.66;;;18.03;100.00
66021;BME280;52789;59.980;30.346;2022-07-12T02:53:26;101062.31;;;18.02;100.00
66021;BME280;52789;59.980;30.346;2022-07-12T02:55:52;101048.84;;;17.95;100.00
66021;BME280;52789;59.980;30.346;2022-07-12T02:58:17;101060.25;;;18.10;100.00
66021;BME280;52789;59.980;30.346;2022-07-12T03:00:43;101068.56;;;18.15;100.00
66021;BME280;52789;59.980;30.346;2022-07-12T03:03:11;101078.50;;;18.15;100.00
66021;BME280;52789;59.980;30.346;2022-07-12T03:05:38;101084.34;;;18.25;100.00
66021;BME280;52789;59.980;30.346;2022-07-12T03:08:06;101095.53;;;18.29;100.00
66021;BME280;52789;59.980;30.346;2022-07-12T03:10:33;101064.22;;;18.27;100.00
66021;BME280;52789;59.980;30.346;2022-07-12T03:12:58;101086.84;;;18.60;100.00
66021;BME280;52789;59.980;30.346;2022-07-12T03:15:23;101088.75;;;18.85;99.73
66021;BME280;52789;59.980;30.346;2022-07-12T03:17:49;101081.44;;;19.19;97.15
66021;BME280;52789;59.980;30.346;2022-07-12T03:20:15;101077.63;;;19.98;92.79
66021;BME280;52789;59.980;30.346;2022-07-12T03:22:43;101071.94;;;20.69;88.62
66021;BME280;52789;59.980;30.346;2022-07-12T03:25:12;101069.41;;;21.54;85.20
66021;BME280;52789;59.980;30.346;2022-07-12T03:27:38;101073.56;;;22.58;80.11
66021;BME280;52789;59.980;30.346;2022-07-12T03:30:04;101061.19;;;23.21;76.93
66021;BME280;52789;59.980;30.346;2022-07-12T03:32:30;101040.75;;;23.70;74.35
66021;BME280;52789;59.980;30.346;2022-07-12T03:34:55;101054.91;;;23.84;73.35
66021;BME280;52789;59.980;30.346;2022-07-12T03:37:21;101051.81;;;24.25;72.00
66021;BME280;52789;59.980;30.346;2022-07-12T03:39:46;101046.06;;;24.05;71.60
66021;BME280;52789;59.980;30.346;2022-07-12T03:42:12;101041.44;;;23.25;74.25
66021;BME280;52789;59.980;30.346;2022-07-12T03:44:38;101031.28;;;22.50;76.86
66021;BME280;52789;59.980;30.346;2022-07-12T03:47:03;100997.91;;;22.38;77.29
66021;BME280;52789;59.980;30.346;2022-07-12T03:49:29;101028.47;;;22.69;76.13
66021;BME280;52789;59.980;30.346;2022-07-12T03:51:54;101038.06;;;23.18;74.88
66021;BME280;52789;59.980;30.346;2022-07-12T03:54:20;101030.19;;;23.33;73.65
66021;BME280;52789;59.980;30.346;2022-07-12T03:56:46;101030.50;;;22.97;75.33
66021;BME280;52789;59.980;30.346;2022-07-12T03:59:30;101026.84;;;22.68;76.58
66021;BME280;52789;59.980;30.346;2022-07-12T04:01:55;101034.13;;;22.79;76.61
66021;BME280;52789;59.980;30.346;2022-07-12T04:04:21;101015.84;;;23.21;74.17
66021;BME280;52789;59.980;30.346;2022-07-12T04:06:46;101012.63;;;23.93;72.19
66021;BME280;52789;59.980;30.346;2022-07-12T04:09:37;101008.41;;;24.47;69.83
66021;BME280;52789;59.980;30.346;2022-07-12T04:12:03;101018.94;;;24.77;67.98
66021;BME280;52789;59.980;30.346;2022-07-12T04:14:29;101009.50;;;25.01;67.50
66021;BME280;52789;59.980;30.346;2022-07-12T04:16:55;101033.59;;;24.93;67.45
66021;BME280;52789;59.980;30.346;2022-07-12T04:19:21;101040.69;;;24.94;66.88
66021;BME280;52789;59.980;30.346;2022-07-12T04:21:51;101048.72;;;25.00;67.35
66021;BME280;52789;59.980;30.346;2022-07-12T04:24:16;101030.78;;;25.05;66.80
66021;BME280;52789;59.980;30.346;2022-07-12T04:26:42;101039.97;;;24.98;67.05
66021;BME280;52789;59.980;30.346;2022-07-12T04:29:07;101038.22;;;25.31;66.03
66021;BME280;52789;59.980;30.346;2022-07-12T04:31:33;101037.41;;;25.52;65.20
66021;BME280;52789;59.980;30.346;2022-07-12T04:33:58;101037.81;;;25.66;64.20
66021;BME280;52789;59.980;30.346;2022-07-12T04:36:24;101035.91;;;25.88;63.62
66021;BME280;52789;59.980;30.346;2022-07-12T04:38:49;101022.50;;;25.38;65.04
66021;BME280;52789;59.980;30.346;2022-07-12T04:41:15;101041.88;;;25.42;65.27
66021;BME280;52789;59.980;30.346;2022-07-12T04:43:40;101047.03;;;25.38;65.55
66021;BME280;52789;59.980;30.346;2022-07-12T04:46:09;101051.22;;;25.68;65.11
66021;BME280;52789;59.980;30.346;2022-07-12T04:48:38;101062.88;;;25.41;65.67
66021;BME280;52789;59.980;30.346;2022-07-12T04:51:03;101037.59;;;25.24;65.67
66021;BME280;52789;59.980;30.346;2022-07-12T04:53:29;101029.47;;;25.29;65.96
66021;BME280;52789;59.980;30.346;2022-07-12T04:55:56;101027.19;;;25.43;65.71
66021;BME280;52789;59.980;30.346;2022-07-12T04:58:22;101027.50;;;25.24;65.80
66021;BME280;52789;59.980;30.346;2022-07-12T05:00:49;101021.88;;;24.92;66.67
66021;BME280;52789;59.980;30.346;2022-07-12T05:03:14;101014.44;;;25.05;66.91
66021;BME280;52789;59.980;30.346;2022-07-12T05:05:40;101026.38;;;25.20;66.29
66021;BME280;52789;59.980;30.346;2022-07-12T05:08:05;101009.34;;;24.07;70.09
66021;BME280;52789;59.980;30.346;2022-07-12T05:10:32;101016.56;;;23.85;71.08
66021;BME280;52789;59.980;30.346;2022-07-12T05:13:01;101029.97;;;24.20;70.52
66021;BME280;52789;59.980;30.346;2022-07-12T05:15:27;101016.28;;;24.82;67.82
66021;BME280;52789;59.980;30.346;2022-07-12T05:17:52;101020.84;;;25.15;66.99
66021;BME280;52789;59.980;30.346;2022-07-12T05:20:18;101016.75;;;24.96;67.37
66021;BME280;52789;59.980;30.346;2022-07-12T05:22:44;101026.97;;;24.67;68.28
66021;BME280;52789;59.980;30.346;2022-07-12T05:25:10;101027.28;;;24.54;69.08
66021;BME280;52789;59.980;30.346;2022-07-12T05:30:04;101013.84;;;23.16;74.02
66021;BME280;52789;59.980;30.346;2022-07-12T05:32:30;101009.03;;;22.60;76.54
66021;BME280;52789;59.980;30.346;2022-07-12T05:34:56;100995.91;;;22.34;78.19
66021;BME280;52789;59.980;30.346;2022-07-12T05:37:22;101004.13;;;22.15;79.22
66021;BME280;52789;59.980;30.346;2022-07-12T05:39:50;101011.31;;;22.10;79.11
66021;BME280;52789;59.980;30.346;2022-07-12T05:42:16;101000.09;;;21.76;80.18
66021;BME280;52789;59.980;30.346;2022-07-12T05:44:41;101001.31;;;21.62;81.17
66021;BME280;52789;59.980;30.346;2022-07-12T05:47:06;100998.03;;;21.60;81.79
66021;BME280;52789;59.980;30.346;2022-07-12T05:49:32;100994.25;;;21.61;82.01
66021;BME280;52789;59.980;30.346;2022-07-12T05:51:57;101002.69;;;21.71;82.12
66021;BME280;52789;59.980;30.346;2022-07-12T05:54:41;101004.00;;;21.80;81.46
66021;BME280;52789;59.980;30.346;2022-07-12T05:57:07;100990.22;;;21.82;81.21
66021;BME280;52789;59.980;30.346;2022-07-12T05:59:34;101004.25;;;21.90;81.07
66021;BME280;52789;59.980;30.346;2022-07-12T06:02:00;100998.38;;;21.93;81.07
66021;BME280;52789;59.980;30.346;2022-07-12T06:04:25;100986.22;;;21.96;81.33
66021;BME280;52789;59.980;30.346;2022-07-12T06:06:51;100993.97;;;22.11;81.12
66021;BME280;52789;59.980;30.346;2022-07-12T06:09:17;100980.06;;;22.19;80.95
66021;BME280;52789;59.980;30.346;2022-07-12T06:11:43;100985.00;;;22.22;80.31
66021;BME280;52789;59.980;30.346;2022-07-12T06:14:08;100969.56;;;22.22;80.33
66021;BME280;52789;59.980;30.346;2022-07-12T06:16:34;100968.28;;;22.25;80.17
66021;BME280;52789;59.980;30.346;2022-07-12T06:18:59;100969.47;;;22.29;80.27
66021;BME280;52789;59.980;30.346;2022-07-12T06:21:25;100948.59;;;22.30;79.30
66021;BME280;52789;59.980;30.346;2022-07-12T06:23:50;100968.41;;;22.42;79.23
66021;BME280;52789;59.980;30.346;2022-07-12T06:26:16;100959.81;;;22.33;78.70
66021;BME280;52789;59.980;30.346;2022-07-12T06:28:41;100967.59;;;22.41;78.98
66021;BME280;52789;59.980;30.346;2022-07-12T06:31:06;100981.63;;;22.50;78.66
66021;BME280;52789;59.980;30.346;2022-07-12T06:33:32;100977.75;;;22.58;78.53
66021;BME280;52789;59.980;30.346;2022-07-12T06:35:58;100967.25;;;22.61;78.49
66021;BME280;52789;59.980;30.346;2022-07-12T06:38:23;100961.22;;;22.47;79.10
66021;BME280;52789;59.980;30.346;2022-07-12T06:40:49;100970.88;;;22.43;78.94
66021;BME280;52789;59.980;30.346;2022-07-12T06:43:14;100959.56;;;22.46;79.12
66021;BME280;52789;59.980;30.346;2022-07-12T06:45:40;100960.63;;;22.57;79.22
66021;BME280;52789;59.980;30.346;2022-07-12T06:48:06;100954.59;;;22.67;78.54
66021;BME280;52789;59.980;30.346;2022-07-12T06:50:32;100961.69;;;22.68;78.51
66021;BME280;52789;59.980;30.346;2022-07-12T06:52:58;100958.25;;;22.72;78.15
66021;BME280;52789;59.980;30.346;2022-07-12T06:55:23;100956.94;;;22.75;78.28
66021;BME280;52789;59.980;30.346;2022-07-12T06:57:49;100944.53;;;22.79;77.35
66021;BME280;52789;59.980;30.346;2022-07-12T07:00:15;100951.03;;;22.78;78.28
66021;BME280;52789;59.980;30.346;2022-07-12T07:02:40;100942.66;;;22.79;78.08
66021;BME280;52789;59.980;30.346;2022-07-12T07:05:07;100950.22;;;22.66;77.92
66021;BME280;52789;59.980;30.346;2022-07-12T07:07:32;100924.72;;;22.55;78.39
66021;BME280;52789;59.980;30.346;2022-07-12T07:09:59;100942.31;;;22.76;78.94
66021;BME280;52789;59.980;30.346;2022-07-12T07:12:49;100943.75;;;22.90;77.97
66021;BME280;52789;59.980;30.346;2022-07-12T07:15:15;100934.16;;;22.99;77.21
66021;BME280;52789;59.980;30.346;2022-07-12T07:17:42;100935.81;;;23.29;76.84
66021;BME280;52789;59.980;30.346;2022-07-12T07:20:10;100929.66;;;23.62;76.01
66021;BME280;52789;59.980;30.346;2022-07-12T07:22:37;100922.03;;;23.75;74.79
66021;BME280;52789;59.980;30.346;2022-07-12T07:25:04;100931.84;;;23.93;74.36
66021;BME280;52789;59.980;30.346;2022-07-12T07:27:29;100940.34;;;24.14;74.30
66021;BME280;52789;59.980;30.346;2022-07-12T07:29:55;100938.47;;;24.31;73.70
66021;BME280;52789;59.980;30.346;2022-07-12T07:32:39;100954.19;;;24.46;72.68
66021;BME280;52789;59.980;30.346;2022-07-12T07:35:05;100942.59;;;24.33;72.74
66021;BME280;52789;59.980;30.346;2022-07-12T07:37:32;100940.25;;;24.25;73.50
66021;BME280;52789;59.980;30.346;2022-07-12T07:39:58;100931.53;;;24.40;73.52
66021;BME280;52789;59.980;30.346;2022-07-12T07:42:23;100945.00;;;24.68;72.67
66021;BME280;52789;59.980;30.346;2022-07-12T07:44:49;100943.28;;;24.62;72.10
66021;BME280;52789;59.980;30.346;2022-07-12T07:47:14;100933.75;;;24.43;72.41
66021;BME280;52789;59.980;30.346;2022-07-12T07:49:40;100949.84;;;24.45;72.70
66021;BME280;52789;59.980;30.346;2022-07-12T07:52:05;100945.19;;;24.62;73.00
66021;BME280;52789;59.980;30.346;2022-07-12T07:54:31;100939.31;;;24.70;72.02
66021;BME280;52789;59.980;30.346;2022-07-12T07:56:56;100943.03;;;24.64;72.13
66021;BME280;52789;59.980;30.346;2022-07-12T07:59:22;100940.41;;;24.52;71.97
66021;BME280;52789;59.980;30.346;2022-07-12T08:01:47;100922.47;;;24.34;72.05
66021;BME280;52789;59.980;30.346;2022-07-12T08:04:24;100932.69;;;24.44;72.30
66021;BME280;52789;59.980;30.346;2022-07-12T08:06:50;100915.91;;;24.52;71.81
66021;BME280;52789;59.980;30.346;2022-07-12T08:09:16;100920.75;;;24.67;71.71
66021;BME280;52789;59.980;30.346;2022-07-12T08:11:42;100930.13;;;24.76;71.44
66021;BME280;52789;59.980;30.346;2022-07-12T08:14:12;100928.53;;;24.80;71.36
66021;BME280;52789;59.980;30.346;2022-07-12T08:16:38;100931.78;;;24.77;71.02
66021;BME280;52789;59.980;30.346;2022-07-12T08:19:04;100928.97;;;24.72;71.62
66021;BME280;52789;59.980;30.346;2022-07-12T08:21:30;100933.56;;;24.88;71.13
66021;BME280;52789;59.980;30.346;2022-07-12T08:24:05;100929.41;;;25.02;71.14
66021;BME280;52789;59.980;30.346;2022-07-12T08:26:31;100928.75;;;24.95;70.92
66021;BME280;52789;59.980;30.346;2022-07-12T08:28:56;100923.81;;;24.92;71.00
66021;BME280;52789;59.980;30.346;2022-07-12T08:31:22;100926.28;;;24.94;71.11
66021;BME280;52789;59.980;30.346;2022-07-12T08:33:47;100910.44;;;24.69;70.96
66021;BME280;52789;59.980;30.346;2022-07-12T08:36:14;100914.47;;;24.66;71.34
66021;BME280;52789;59.980;30.346;2022-07-12T08:38:40;100915.81;;;24.64;71.93
66021;BME280;52789;59.980;30.346;2022-07-12T08:41:11;100919.53;;;24.58;71.98
66021;BME280;52789;59.980;30.346;2022-07-12T08:43:37;100915.94;;;24.74;72.37
66021;BME280;52789;59.980;30.346;2022-07-12T08:46:07;100924.38;;;24.94;71.82
66021;BME280;52789;59.980;30.346;2022-07-12T08:48:37;100919.63;;;25.07;71.06
66021;BME280;52789;59.980;30.346;2022-07-12T08:51:05;100916.34;;;25.05;71.11
66021;BME280;52789;59.980;30.346;2022-07-12T08:53:31;100923.25;;;24.90;71.79
66021;BME280;52789;59.980;30.346;2022-07-12T08:55:59;100923.03;;;24.75;71.84
66021;BME280;52789;59.980;30.346;2022-07-12T08:58:25;100902.44;;;24.62;72.77
66021;BME280;52789;59.980;30.346;2022-07-12T09:00:50;100903.69;;;24.55;73.28
66021;BME280;52789;59.980;30.346;2022-07-12T09:03:17;100912.84;;;24.49;72.96
66021;BME280;52789;59.980;30.346;2022-07-12T09:05:53;100909.69;;;24.57;73.82
66021;BME280;52789;59.980;30.346;2022-07-12T09:08:31;100915.66;;;24.54;72.90
66021;BME280;52789;59.980;30.346;2022-07-12T09:11:01;100910.19;;;24.54;73.12
66021;BME280;52789;59.980;30.346;2022-07-12T09:16:14;100919.16;;;24.71;72.21
66021;BME280;52789;59.980;30.346;2022-07-12T09:18:42;100918.09;;;24.72;71.64
66021;BME280;52789;59.980;30.346;2022-07-12T09:21:09;100906.06;;;24.68;71.62
66021;BME280;52789;59.980;30.346;2022-07-12T09:23:35;100916.13;;;24.89;71.08
66021;BME280;52789;59.980;30.346;2022-07-12T09:26:07;100909.09;;;24.93;70.65
66021;BME280;52789;59.980;30.346;2022-07-12T09:28:33;100914.88;;;25.19;71.14
66021;BME280;52789;59.980;30.346;2022-07-12T09:30:58;100922.59;;;25.27;69.96
66021;BME280;52789;59.980;30.346;2022-07-12T09:33:24;100909.03;;;25.32;69.74
66021;BME280;52789;59.980;30.346;2022-07-12T09:36:08;100918.94;;;25.43;69.68
66021;BME280;52789;59.980;30.346;2022-07-12T09:41:09;100911.34;;;25.45;69.42
66021;BME280;52789;59.980;30.346;2022-07-12T09:43:35;100914.13;;;25.50;69.81
66021;BME280;52789;59.980;30.346;2022-07-12T09:46:00;100912.25;;;25.56;70.10
66021;BME280;52789;59.980;30.346;2022-07-12T09:48:27;100931.31;;;25.51;70.18
66021;BME280;52789;59.980;30.346;2022-07-12T09:50:57;100909.13;;;25.42;70.39
66021;BME280;52789;59.980;30.346;2022-07-12T09:53:32;100911.03;;;25.42;71.02
66021;BME280;52789;59.980;30.346;2022-07-12T09:56:03;100910.00;;;25.48;69.24
66021;BME280;52789;59.980;30.346;2022-07-12T09:58:43;100907.28;;;25.48;70.32
66021;BME280;52789;59.980;30.346;2022-07-12T10:01:10;100885.25;;;25.27;70.99
66021;BME280;52789;59.980;30.346;2022-07-12T10:03:36;100889.97;;;25.37;71.64
66021;BME280;52789;59.980;30.346;2022-07-12T10:06:04;100894.09;;;25.40;71.57
66021;BME280;52789;59.980;30.346;2022-07-12T10:08:30;100898.22;;;25.42;70.24
66021;BME280;52789;59.980;30.346;2022-07-12T10:10:58;100895.22;;;25.44;70.35
66021;BME280;52789;59.980;30.346;2022-07-12T10:13:25;100887.25;;;25.37;70.66
66021;BME280;52789;59.980;30.346;2022-07-12T10:15:51;100895.47;;;25.42;71.02
66021;BME280;52789;59.980;30.346;2022-07-12T10:18:23;100880.75;;;25.43;70.30
66021;BME280;52789;59.980;30.346;2022-07-12T10:20:49;100877.47;;;25.41;69.58
66021;BME280;52789;59.980;30.346;2022-07-12T10:23:33;100876.72;;;25.46;70.22
66021;BME280;52789;59.980;30.346;2022-07-12T10:29:03;100863.19;;;25.56;71.36
66021;BME280;52789;59.980;30.346;2022-07-12T10:31:34;100855.81;;;25.56;71.02
66021;BME280;52789;59.980;30.346;2022-07-12T10:34:20;100844.94;;;25.61;69.49
66021;BME280;52789;59.980;30.346;2022-07-12T10:39:22;100835.78;;;25.73;68.14
66021;BME280;52789;59.980;30.346;2022-07-12T10:42:12;100833.13;;;25.78;68.33
66021;BME280;52789;59.980;30.346;2022-07-12T10:44:40;100828.25;;;25.85;68.22
66021;BME280;52789;59.980;30.346;2022-07-12T10:47:08;100826.09;;;25.92;68.16
66021;BME280;52789;59.980;30.346;2022-07-12T10:49:35;100835.41;;;25.96;68.10
66021;BME280;52789;59.980;30.346;2022-07-12T10:57:05;100818.34;;;26.16;68.11
66021;BME280;52789;59.980;30.346;2022-07-12T10:59:36;100824.06;;;26.14;67.86
66021;BME280;52789;59.980;30.346;2022-07-12T11:02:03;100810.97;;;26.11;68.63
66021;BME280;52789;59.980;30.346;2022-07-12T11:04:29;100825.72;;;26.15;67.81
66021;BME280;52789;59.980;30.346;2022-07-12T11:06:55;100824.09;;;26.19;68.63
66021;BME280;52789;59.980;30.346;2022-07-12T11:09:23;100814.78;;;26.15;67.43
66021;BME280;52789;59.980;30.346;2022-07-12T11:11:50;100821.34;;;26.14;67.42
66021;BME280;52789;59.980;30.346;2022-07-12T11:14:28;100820.03;;;26.27;67.80
66021;BME280;52789;59.980;30.346;2022-07-12T11:16:58;100831.31;;;26.36;66.44
66021;BME280;52789;59.980;30.346;2022-07-12T11:19:31;100823.97;;;26.36;67.02
66021;BME280;52789;59.980;30.346;2022-07-12T11:21:58;100821.41;;;26.30;67.61
66021;BME280;52789;59.980;30.346;2022-07-12T11:24:27;100832.41;;;26.35;67.70
66021;BME280;52789;59.980;30.346;2022-07-12T11:26:52;100820.31;;;26.31;67.09
66021;BME280;52789;59.980;30.346;2022-07-12T11:29:19;100830.25;;;26.42;67.51
66021;BME280;52789;59.980;30.346;2022-07-12T11:31:45;100802.38;;;26.35;67.38
66021;BME280;52789;59.980;30.346;2022-07-12T11:34:25;100818.81;;;26.50;67.65
66021;BME280;52789;59.980;30.346;2022-07-12T11:36:52;100811.72;;;26.49;66.85
66021;BME280;52789;59.980;30.346;2022-07-12T11:39:35;100804.09;;;26.56;67.04
66021;BME280;52789;59.980;30.346;2022-07-12T11:42:14;100798.59;;;26.51;66.26
66021;BME280;52789;59.980;30.346;2022-07-12T11:45:14;100789.28;;;26.42;65.94
66021;BME280;52789;59.980;30.346;2022-07-12T11:47:39;100789.03;;;26.43;65.70
66021;BME280;52789;59.980;30.346;2022-07-12T11:50:06;100787.41;;;26.47;64.94
66021;BME280;52789;59.980;30.346;2022-07-12T11:52:34;100791.53;;;26.55;64.94
66021;BME280;52789;59.980;30.346;2022-07-12T11:55:01;100790.47;;;26.66;64.91
66021;BME280;52789;59.980;30.346;2022-07-12T11:57:32;100779.00;;;26.64;64.08
66021;BME280;52789;59.980;30.346;2022-07-12T11:59:57;100776.84;;;26.71;64.12
66021;BME280;52789;59.980;30.346;2022-07-12T12:02:23;100774.66;;;26.68;63.64
66021;BME280;52789;59.980;30.346;2022-07-12T12:04:54;100794.38;;;26.96;63.22
66021;BME280;52789;59.980;30.346;2022-07-12T12:07:21;100799.31;;;26.94;62.63
66021;BME280;52789;59.980;30.346;2022-07-12T12:10:05;100806.94;;;26.97;62.98
66021;BME280;52789;59.980;30.346;2022-07-12T12:15:16;100800.34;;;26.82;63.38
66021;BME280;52789;59.980;30.346;2022-07-12T12:20:26;100790.50;;;26.76;64.25
66021;BME280;52789;59.980;30.346;2022-07-12T12:22:57;100802.53;;;26.80;64.46
66021;BME280;52789;59.980;30.346;2022-07-12T12:25:23;100831.75;;;26.80;64.18
66021;BME280;52789;59.980;30.346;2022-07-12T12:28:00;100853.22;;;26.46;64.44
66021;BME280;52789;59.980;30.346;2022-07-12T12:30:27;100920.03;;;26.01;61.47
66021;BME280;52789;59.980;30.346;2022-07-12T12:32:55;100934.38;;;24.67;64.04
66021;BME280;52789;59.980;30.346;2022-07-12T12:35:34;100904.56;;;23.43;71.03
66021;BME280;52789;59.980;30.346;2022-07-12T12:38:02;100894.53;;;22.51;72.05
66021;BME280;52789;59.980;30.346;2022-07-12T12:40:31;100899.34;;;21.79;76.18
66021;BME280;52789;59.980;30.346;2022-07-12T12:43:07;100884.00;;;21.31;77.35
66021;BME280;52789;59.980;30.346;2022-07-12T12:45:33;100887.75;;;20.82;79.41
66021;BME280;52789;59.980;30.346;2022-07-12T12:48:04;100910.09;;;20.59;80.85
66021;BME280;52789;59.980;30.346;2022-07-12T12:50:46;100920.13;;;20.52;80.91
66021;BME280;52789;59.980;30.346;2022-07-12T12:53:14;100927.16;;;20.35;82.35
66021;BME280;52789;59.980;30.346;2022-07-12T12:55:41;100916.28;;;20.17;83.53
66021;BME280;52789;59.980;30.346;2022-07-12T12:58:07;100883.69;;;19.87;83.00
66021;BME280;52789;59.980;30.346;2022-07-12T13:00:35;100870.22;;;19.55;86.86
66021;BME280;52789;59.980;30.346;2022-07-12T13:03:03;100837.22;;;19.15;88.06